sensor_id;sensor_type;location;lat;lon;timestamp;P1;durP1;ratioP1;P2;durP2;ratioP2
25621;SDS011;13487;39.360;22.962;2023-02-01T00:00:13;0.30;;;0.30;;
25621;SDS011;13487;39.360;22.962;2023-02-01T00:02:39;0.77;;;0.57;;
25621;SDS011;13487;39.360;22.962;2023-02-01T00:05:07;0.40;;;0.40;;
25621;SDS011;13487;39.360;22.962;2023-02-01T00:07:34;0.40;;;0.40;;
25621;SDS011;13487;39.360;22.962;2023-02-01T00:10:00;0.60;;;0.60;;
25621;SDS011;13487;39.360;22.962;2023-02-01T00:12:26;0.60;;;0.60;;
25621;SDS011;13487;39.360;22.962;2023-02-01T00:14:52;0.40;;;0.40;;
25621;SDS011;13487;39.360;22.962;2023-02-01T00:17:19;0.60;;;0.60;;
25621;SDS011;13487;39.360;22.962;2023-02-01T00:19:45;0.30;;;0.30;;
25621;SDS011;13487;39.360;22.962;2023-02-01T00:22:11;0.47;;;0.47;;
25621;SDS011;13487;39.360;22.962;2023-02-01T00:24:37;0.30;;;0.30;;
25621;SDS011;13487;39.360;22.962;2023-02-01T00:27:05;0.30;;;0.30;;
25621;SDS011;13487;39.360;22.962;2023-02-01T00:29:31;0.40;;;0.40;;
25621;SDS011;13487;39.360;22.962;2023-02-01T00:31:57;0.43;;;0.43;;
25621;SDS011;13487;39.360;22.962;2023-02-01T00:34:24;0.40;;;0.40;;
25621;SDS011;13487;39.360;22.962;2023-02-01T00:36:51;0.40;;;0.40;;
25621;SDS011;13487;39.360;22.962;2023-02-01T00:39:17;0.40;;;0.40;;
25621;SDS011;13487;39.360;22.962;2023-02-01T00:41:43;0.40;;;0.40;;
25621;SDS011;13487;39.360;22.962;2023-02-01T00:44:09;0.30;;;0.30;;
25621;SDS011;13487;39.360;22.962;2023-02-01T00:46:36;0.50;;;0.50;;
25621;SDS011;13487;39.360;22.962;2023-02-01T00:49:02;0.30;;;0.30;;
25621;SDS011;13487;39.360;22.962;2023-02-01T00:51:28;0.43;;;0.43;;
25621;SDS011;13487;39.360;22.962;2023-02-01T00:53:55;0.40;;;0.40;;
25621;SDS011;13487;39.360;22.962;2023-02-01T00:56:22;0.30;;;0.30;;
25621;SDS011;13487;39.360;22.962;2023-02-01T00:58:48;0.60;;;0.60;;
25621;SDS011;13487;39.360;22.962;2023-02-01T01:01:17;0.40;;;0.40;;
25621;SDS011;13487;39.360;22.962;2023-02-01T01:03:45;0.50;;;0.50;;
25621;SDS011;13487;39.360;22.962;2023-02-01T01:06:13;0.40;;;0.40;;
25621;SDS011;13487;39.360;22.962;2023-02-01T01:08:39;0.50;;;0.50;;
25621;SDS011;13487;39.360;22.962;2023-02-01T01:11:13;0.40;;;0.40;;
25621;SDS011;13487;39.360;22.962;2023-02-01T01:13:40;0.40;;;0.40;;
25621;SDS011;13487;39.360;22.962;2023-02-01T01:16:07;0.30;;;0.30;;
25621;SDS011;13487;39.360;22.962;2023-02-01T01:18:33;0.30;;;0.30;;
25621;SDS011;13487;39.360;22.962;2023-02-01T01:21:00;0.47;;;0.47;;
25621;SDS011;13487;39.360;22.962;2023-02-01T01:23:26;0.73;;;0.73;;
25621;SDS011;13487;39.360;22.962;2023-02-01T01:25:53;0.60;;;0.60;;
25621;SDS011;13487;39.360;22.962;2023-02-01T01:28:19;0.43;;;0.43;;
25621;SDS011;13487;39.360;22.962;2023-02-01T01:30:46;0.30;;;0.30;;
25621;SDS011;13487;39.360;22.962;2023-02-01T01:33:12;1.33;;;0.93;;
25621;SDS011;13487;39.360;22.962;2023-02-01T01:35:38;0.40;;;0.40;;
25621;SDS011;13487;39.360;22.962;2023-02-01T01:38:04;0.33;;;0.33;;
25621;SDS011;13487;39.360;22.962;2023-02-01T01:40:30;1.10;;;1.00;;
25621;SDS011;13487;39.360;22.962;2023-02-01T01:42:57;0.40;;;0.40;;
25621;SDS011;13487;39.360;22.962;2023-02-01T01:45:24;0.33;;;0.33;;
25621;SDS011;13487;39.360;22.962;2023-02-01T01:47:52;1.27;;;1.20;;
25621;SDS011;13487;39.360;22.962;2023-02-01T01:50:20;0.30;;;0.30;;
25621;SDS011;13487;39.360;22.962;2023-02-01T01:52:49;0.50;;;0.50;;
25621;SDS011;13487;39.360;22.962;2023-02-01T01:55:17;0.40;;;0.40;;
25621;SDS011;13487;39.360;22.962;2023-02-01T01:57:44;0.40;;;0.40;;
25621;SDS011;13487;39.360;22.962;2023-02-01T02:00:14;0.40;;;0.40;;
25621;SDS011;13487;39.360;22.962;2023-02-01T02:02:42;44.37;;;2.67;;
25621;SDS011;13487;39.360;22.962;2023-02-01T02:05:08;0.30;;;0.30;;
25621;SDS011;13487;39.360;22.962;2023-02-01T02:07:36;0.37;;;0.37;;
25621;SDS011;13487;39.360;22.962;2023-02-01T02:10:04;0.30;;;0.30;;
25621;SDS011;13487;39.360;22.962;2023-02-01T02:12:31;0.30;;;0.30;;
25621;SDS011;13487;39.360;22.962;2023-02-01T02:14:58;0.30;;;0.30;;
25621;SDS011;13487;39.360;22.962;2023-02-01T02:17:36;0.70;;;0.70;;
25621;SDS011;13487;39.360;22.962;2023-02-01T02:20:20;0.40;;;0.40;;
25621;SDS011;13487;39.360;22.962;2023-02-01T02:22:55;0.50;;;0.50;;
25621;SDS011;13487;39.360;22.962;2023-02-01T02:38:47;0.30;;;0.30;;
25621;SDS011;13487;39.360;22.962;2023-02-01T02:41:18;0.63;;;0.63;;
25621;SDS011;13487;39.360;22.962;2023-02-01T02:44:47;0.40;;;0.40;;
25621;SDS011;13487;39.360;22.962;2023-02-01T02:47:15;0.43;;;0.43;;
25621;SDS011;13487;39.360;22.962;2023-02-01T02:56:16;0.33;;;0.33;;
25621;SDS011;13487;39.360;22.962;2023-02-01T02:59:03;0.30;;;0.30;;
25621;SDS011;13487;39.360;22.962;2023-02-01T03:01:48;0.40;;;0.40;;
25621;SDS011;13487;39.360;22.962;2023-02-01T03:04:33;0.47;;;0.47;;
25621;SDS011;13487;39.360;22.962;2023-02-01T03:07:45;1.43;;;1.33;;
25621;SDS011;13487;39.360;22.962;2023-02-01T03:10:05;0.60;;;0.60;;
25621;SDS011;13487;39.360;22.962;2023-02-01T03:12:34;0.40;;;0.40;;
25621;SDS011;13487;39.360;22.962;2023-02-01T03:15:26;0.30;;;0.30;;
25621;SDS011;13487;39.360;22.962;2023-02-01T03:17:53;0.40;;;0.40;;
25621;SDS011;13487;39.360;22.962;2023-02-01T03:20:21;0.30;;;0.30;;
25621;SDS011;13487;39.360;22.962;2023-02-01T03:22:48;0.30;;;0.30;;
25621;SDS011;13487;39.360;22.962;2023-02-01T03:25:17;0.30;;;0.30;;
25621;SDS011;13487;39.360;22.962;2023-02-01T03:27:50;0.80;;;0.80;;
25621;SDS011;13487;39.360;22.962;2023-02-01T03:30:26;0.40;;;0.40;;
25621;SDS011;13487;39.360;22.962;2023-02-01T03:32:57;1.33;;;1.23;;
25621;SDS011;13487;39.360;22.962;2023-02-01T03:38:21;0.63;;;0.63;;
25621;SDS011;13487;39.360;22.962;2023-02-01T03:40:51;0.40;;;0.40;;
25621;SDS011;13487;39.360;22.962;2023-02-01T03:43:17;0.40;;;0.40;;
25621;SDS011;13487;39.360;22.962;2023-02-01T03:45:46;1.43;;;1.33;;
25621;SDS011;13487;39.360;22.962;2023-02-01T03:48:14;0.90;;;0.90;;
25621;SDS011;13487;39.360;22.962;2023-02-01T03:50:43;0.57;;;0.57;;
25621;SDS011;13487;39.360;22.962;2023-02-01T03:53:12;0.57;;;0.57;;
25621;SDS011;13487;39.360;22.962;2023-02-01T03:55:39;1.53;;;1.43;;
25621;SDS011;13487;39.360;22.962;2023-02-01T04:00:34;0.50;;;0.50;;
25621;SDS011;13487;39.360;22.962;2023-02-01T04:03:01;0.70;;;0.70;;
25621;SDS011;13487;39.360;22.962;2023-02-01T04:05:29;0.40;;;0.40;;
25621;SDS011;13487;39.360;22.962;2023-02-01T04:07:55;3.00;;;1.50;;
25621;SDS011;13487;39.360;22.962;2023-02-01T04:10:21;0.40;;;0.40;;
25621;SDS011;13487;39.360;22.962;2023-02-01T04:12:48;0.40;;;0.40;;
25621;SDS011;13487;39.360;22.962;2023-02-01T04:15:14;0.40;;;0.40;;
25621;SDS011;13487;39.360;22.962;2023-02-01T04:17:40;1.50;;;1.40;;
25621;SDS011;13487;39.360;22.962;2023-02-01T04:20:06;0.60;;;0.60;;
25621;SDS011;13487;39.360;22.962;2023-02-01T04:22:34;0.57;;;0.57;;
25621;SDS011;13487;39.360;22.962;2023-02-01T04:25:00;0.63;;;0.63;;
25621;SDS011;13487;39.360;22.962;2023-02-01T04:27:26;0.40;;;0.40;;
25621;SDS011;13487;39.360;22.962;2023-02-01T04:29:52;0.50;;;0.50;;
25621;SDS011;13487;39.360;22.962;2023-02-01T04:32:18;0.60;;;0.60;;
25621;SDS011;13487;39.360;22.962;2023-02-01T04:34:47;0.40;;;0.40;;
25621;SDS011;13487;39.360;22.962;2023-02-01T04:37:13;0.40;;;0.40;;
25621;SDS011;13487;39.360;22.962;2023-02-01T04:39:40;1.23;;;1.13;;
25621;SDS011;13487;39.360;22.962;2023-02-01T04:42:06;0.40;;;0.40;;
25621;SDS011;13487;39.360;22.962;2023-02-01T04:44:34;0.57;;;0.57;;
25621;SDS011;13487;39.360;22.962;2023-02-01T04:47:02;0.60;;;0.60;;
25621;SDS011;13487;39.360;22.962;2023-02-01T04:49:28;0.40;;;0.40;;
25621;SDS011;13487;39.360;22.962;2023-02-01T04:51:55;0.80;;;0.77;;
25621;SDS011;13487;39.360;22.962;2023-02-01T04:54:21;1.03;;;1.03;;
25621;SDS011;13487;39.360;22.962;2023-02-01T04:56:48;0.50;;;0.50;;
25621;SDS011;13487;39.360;22.962;2023-02-01T04:59:14;0.40;;;0.40;;
25621;SDS011;13487;39.360;22.962;2023-02-01T05:01:40;0.40;;;0.40;;
25621;SDS011;13487;39.360;22.962;2023-02-01T05:04:06;1.63;;;1.10;;
25621;SDS011;13487;39.360;22.962;2023-02-01T05:06:32;0.57;;;0.57;;
25621;SDS011;13487;39.360;22.962;2023-02-01T05:08:58;4.07;;;1.40;;
25621;SDS011;13487;39.360;22.962;2023-02-01T05:11:28;2.80;;;1.13;;
25621;SDS011;13487;39.360;22.962;2023-02-01T05:14:12;0.43;;;0.43;;
25621;SDS011;13487;39.360;22.962;2023-02-01T05:16:40;0.60;;;0.60;;
25621;SDS011;13487;39.360;22.962;2023-02-01T05:19:06;0.73;;;0.73;;
25621;SDS011;13487;39.360;22.962;2023-02-01T05:21:33;0.50;;;0.50;;
25621;SDS011;13487;39.360;22.962;2023-02-01T05:23:59;0.60;;;0.60;;
25621;SDS011;13487;39.360;22.962;2023-02-01T05:26:34;0.50;;;0.50;;
25621;SDS011;13487;39.360;22.962;2023-02-01T05:29:00;2.30;;;2.10;;
25621;SDS011;13487;39.360;22.962;2023-02-01T05:31:26;0.50;;;0.50;;
25621;SDS011;13487;39.360;22.962;2023-02-01T05:33:52;0.50;;;0.50;;
25621;SDS011;13487;39.360;22.962;2023-02-01T05:36:19;0.40;;;0.40;;
25621;SDS011;13487;39.360;22.962;2023-02-01T05:38:45;0.60;;;0.60;;
25621;SDS011;13487;39.360;22.962;2023-02-01T05:41:11;0.43;;;0.43;;
25621;SDS011;13487;39.360;22.962;2023-02-01T05:43:37;0.70;;;0.70;;
25621;SDS011;13487;39.360;22.962;2023-02-01T05:46:03;1.13;;;1.13;;
25621;SDS011;13487;39.360;22.962;2023-02-01T05:48:29;0.50;;;0.50;;
25621;SDS011;13487;39.360;22.962;2023-02-01T05:50:55;0.50;;;0.50;;
25621;SDS011;13487;39.360;22.962;2023-02-01T05:53:22;0.40;;;0.40;;
25621;SDS011;13487;39.360;22.962;2023-02-01T05:55:48;0.70;;;0.70;;
25621;SDS011;13487;39.360;22.962;2023-02-01T05:58:14;1.43;;;1.33;;
25621;SDS011;13487;39.360;22.962;2023-02-01T06:00:40;0.50;;;0.50;;
25621;SDS011;13487;39.360;22.962;2023-02-01T06:03:06;0.93;;;0.93;;
25621;SDS011;13487;39.360;22.962;2023-02-01T06:05:32;0.40;;;0.40;;
25621;SDS011;13487;39.360;22.962;2023-02-01T06:07:58;0.80;;;0.80;;
25621;SDS011;13487;39.360;22.962;2023-02-01T06:10:24;1.00;;;1.00;;
25621;SDS011;13487;39.360;22.962;2023-02-01T06:12:50;0.90;;;0.90;;
25621;SDS011;13487;39.360;22.962;2023-02-01T06:15:17;0.80;;;0.80;;
25621;SDS011;13487;39.360;22.962;2023-02-01T06:17:44;3.33;;;0.97;;
25621;SDS011;13487;39.360;22.962;2023-02-01T06:20:11;9.53;;;2.00;;
25621;SDS011;13487;39.360;22.962;2023-02-01T06:22:38;0.30;;;0.30;;
25621;SDS011;13487;39.360;22.962;2023-02-01T06:25:04;1.83;;;1.57;;
25621;SDS011;13487;39.360;22.962;2023-02-01T06:27:31;1.37;;;1.33;;
25621;SDS011;13487;39.360;22.962;2023-02-01T06:29:57;0.30;;;0.30;;
25621;SDS011;13487;39.360;22.962;2023-02-01T06:32:23;0.73;;;0.50;;
25621;SDS011;13487;39.360;22.962;2023-02-01T06:34:49;0.73;;;0.73;;
25621;SDS011;13487;39.360;22.962;2023-02-01T06:37:17;1.80;;;1.00;;
25621;SDS011;13487;39.360;22.962;2023-02-01T06:39:43;0.70;;;0.70;;
25621;SDS011;13487;39.360;22.962;2023-02-01T06:42:10;0.50;;;0.50;;
25621;SDS011;13487;39.360;22.962;2023-02-01T06:44:36;0.90;;;0.90;;
25621;SDS011;13487;39.360;22.962;2023-02-01T06:47:03;0.40;;;0.40;;
25621;SDS011;13487;39.360;22.962;2023-02-01T06:49:29;0.23;;;0.23;;
25621;SDS011;13487;39.360;22.962;2023-02-01T06:51:55;2.47;;;1.57;;
25621;SDS011;13487;39.360;22.962;2023-02-01T06:54:21;0.57;;;0.57;;
25621;SDS011;13487;39.360;22.962;2023-02-01T06:56:48;0.40;;;0.40;;
25621;SDS011;13487;39.360;22.962;2023-02-01T06:59:14;0.77;;;0.77;;
25621;SDS011;13487;39.360;22.962;2023-02-01T07:01:40;0.93;;;0.93;;
25621;SDS011;13487;39.360;22.962;2023-02-01T07:04:06;0.80;;;0.80;;
25621;SDS011;13487;39.360;22.962;2023-02-01T07:06:32;0.50;;;0.50;;
25621;SDS011;13487;39.360;22.962;2023-02-01T07:08:58;0.80;;;0.80;;
25621;SDS011;13487;39.360;22.962;2023-02-01T07:11:26;0.50;;;0.50;;
25621;SDS011;13487;39.360;22.962;2023-02-01T07:13:53;0.53;;;0.53;;
25621;SDS011;13487;39.360;22.962;2023-02-01T07:16:19;0.40;;;0.40;;
25621;SDS011;13487;39.360;22.962;2023-02-01T07:18:46;1.77;;;1.60;;
25621;SDS011;13487;39.360;22.962;2023-02-01T07:21:12;1.27;;;1.27;;
25621;SDS011;13487;39.360;22.962;2023-02-01T07:23:38;5.00;;;2.40;;
25621;SDS011;13487;39.360;22.962;2023-02-01T07:26:05;1.03;;;1.03;;
25621;SDS011;13487;39.360;22.962;2023-02-01T07:28:33;2.30;;;1.47;;
25621;SDS011;13487;39.360;22.962;2023-02-01T07:31:06;0.57;;;0.53;;
25621;SDS011;13487;39.360;22.962;2023-02-01T07:33:33;0.70;;;0.70;;
25621;SDS011;13487;39.360;22.962;2023-02-01T07:36:00;0.83;;;0.83;;
25621;SDS011;13487;39.360;22.962;2023-02-01T07:38:27;0.83;;;0.83;;
25621;SDS011;13487;39.360;22.962;2023-02-01T07:40:56;0.30;;;0.30;;
25621;SDS011;13487;39.360;22.962;2023-02-01T07:43:23;0.50;;;0.50;;
25621;SDS011;13487;39.360;22.962;2023-02-01T07:45:53;3.13;;;1.63;;
25621;SDS011;13487;39.360;22.962;2023-02-01T07:48:19;0.77;;;0.77;;
25621;SDS011;13487;39.360;22.962;2023-02-01T07:50:46;0.60;;;0.60;;
25621;SDS011;13487;39.360;22.962;2023-02-01T07:53:12;1.10;;;1.10;;
25621;SDS011;13487;39.360;22.962;2023-02-01T07:55:38;1.50;;;1.40;;
25621;SDS011;13487;39.360;22.962;2023-02-01T07:58:05;0.60;;;0.60;;
25621;SDS011;13487;39.360;22.962;2023-02-01T08:00:31;0.40;;;0.40;;
25621;SDS011;13487;39.360;22.962;2023-02-01T08:03:15;0.50;;;0.50;;
25621;SDS011;13487;39.360;22.962;2023-02-01T08:05:42;1.40;;;1.30;;
25621;SDS011;13487;39.360;22.962;2023-02-01T08:08:08;0.90;;;0.90;;
25621;SDS011;13487;39.360;22.962;2023-02-01T08:10:34;0.40;;;0.40;;
25621;SDS011;13487;39.360;22.962;2023-02-01T08:13:00;0.70;;;0.70;;
25621;SDS011;13487;39.360;22.962;2023-02-01T08:15:27;0.70;;;0.70;;
25621;SDS011;13487;39.360;22.962;2023-02-01T08:17:54;1.43;;;1.33;;
25621;SDS011;13487;39.360;22.962;2023-02-01T08:20:20;1.97;;;1.83;;
25621;SDS011;13487;39.360;22.962;2023-02-01T08:22:50;1.27;;;1.27;;
25621;SDS011;13487;39.360;22.962;2023-02-01T08:25:17;0.33;;;0.33;;
25621;SDS011;13487;39.360;22.962;2023-02-01T08:27:43;2.00;;;0.97;;
25621;SDS011;13487;39.360;22.962;2023-02-01T08:30:10;0.83;;;0.80;;
25621;SDS011;13487;39.360;22.962;2023-02-01T08:32:36;1.47;;;1.37;;
25621;SDS011;13487;39.360;22.962;2023-02-01T08:35:03;0.33;;;0.33;;
25621;SDS011;13487;39.360;22.962;2023-02-01T08:37:29;1.70;;;1.13;;
25621;SDS011;13487;39.360;22.962;2023-02-01T08:39:56;0.40;;;0.40;;
25621;SDS011;13487;39.360;22.962;2023-02-01T08:42:22;0.30;;;0.30;;
25621;SDS011;13487;39.360;22.962;2023-02-01T08:45:07;0.40;;;0.40;;
25621;SDS011;13487;39.360;22.962;2023-02-01T08:47:34;0.30;;;0.30;;
25621;SDS011;13487;39.360;22.962;2023-02-01T08:50:00;0.83;;;0.83;;
25621;SDS011;13487;39.360;22.962;2023-02-01T08:52:26;0.63;;;0.63;;
25621;SDS011;13487;39.360;22.962;2023-02-01T08:54:52;5.40;;;3.40;;
25621;SDS011;13487;39.360;22.962;2023-02-01T08:57:18;0.40;;;0.40;;
25621;SDS011;13487;39.360;22.962;2023-02-01T08:59:45;0.50;;;0.50;;
25621;SDS011;13487;39.360;22.962;2023-02-01T09:02:14;0.50;;;0.50;;
25621;SDS011;13487;39.360;22.962;2023-02-01T09:04:41;0.60;;;0.60;;
25621;SDS011;13487;39.360;22.962;2023-02-01T09:07:08;0.43;;;0.43;;
25621;SDS011;13487;39.360;22.962;2023-02-01T09:09:34;1.47;;;1.23;;
25621;SDS011;13487;39.360;22.962;2023-02-01T09:12:00;1.03;;;1.03;;
25621;SDS011;13487;39.360;22.962;2023-02-01T09:14:26;1.07;;;0.97;;
25621;SDS011;13487;39.360;22.962;2023-02-01T09:16:53;1.63;;;1.53;;
25621;SDS011;13487;39.360;22.962;2023-02-01T09:19:19;1.00;;;0.53;;
25621;SDS011;13487;39.360;22.962;2023-02-01T09:21:45;0.73;;;0.73;;
25621;SDS011;13487;39.360;22.962;2023-02-01T09:24:11;1.17;;;0.90;;
25621;SDS011;13487;39.360;22.962;2023-02-01T09:26:37;0.40;;;0.40;;
25621;SDS011;13487;39.360;22.962;2023-02-01T09:29:03;0.20;;;0.20;;
25621;SDS011;13487;39.360;22.962;2023-02-01T09:31:35;0.87;;;0.83;;
25621;SDS011;13487;39.360;22.962;2023-02-01T09:34:01;0.30;;;0.30;;
25621;SDS011;13487;39.360;22.962;2023-02-01T09:36:27;0.60;;;0.60;;
25621;SDS011;13487;39.360;22.962;2023-02-01T09:38:54;0.70;;;0.70;;
25621;SDS011;13487;39.360;22.962;2023-02-01T09:44:01;0.83;;;0.80;;
25621;SDS011;13487;39.360;22.962;2023-02-01T09:46:28;0.20;;;0.20;;
25621;SDS011;13487;39.360;22.962;2023-02-01T09:48:56;0.60;;;0.60;;
25621;SDS011;13487;39.360;22.962;2023-02-01T09:51:31;0.40;;;0.40;;
25621;SDS011;13487;39.360;22.962;2023-02-01T09:54:02;0.30;;;0.30;;
25621;SDS011;13487;39.360;22.962;2023-02-01T09:56:47;0.83;;;0.80;;
25621;SDS011;13487;39.360;22.962;2023-02-01T10:02:00;0.60;;;0.60;;
25621;SDS011;13487;39.360;22.962;2023-02-01T10:04:27;0.40;;;0.40;;
25621;SDS011;13487;39.360;22.962;2023-02-01T10:06:57;0.30;;;0.30;;
25621;SDS011;13487;39.360;22.962;2023-02-01T10:09:39;0.40;;;0.40;;
25621;SDS011;13487;39.360;22.962;2023-02-01T10:17:55;2.20;;;2.03;;
25621;SDS011;13487;39.360;22.962;2023-02-01T10:27:41;0.20;;;0.20;;
25621;SDS011;13487;39.360;22.962;2023-02-01T10:30:16;0.60;;;0.60;;
25621;SDS011;13487;39.360;22.962;2023-02-01T10:32:44;0.37;;;0.37;;
25621;SDS011;13487;39.360;22.962;2023-02-01T10:35:17;1.80;;;1.37;;
25621;SDS011;13487;39.360;22.962;2023-02-01T10:37:44;0.20;;;0.20;;
25621;SDS011;13487;39.360;22.962;2023-02-01T10:40:19;0.30;;;0.30;;
25621;SDS011;13487;39.360;22.962;2023-02-01T10:42:47;0.20;;;0.20;;
25621;SDS011;13487;39.360;22.962;2023-02-01T10:45:19;0.70;;;0.70;;
25621;SDS011;13487;39.360;22.962;2023-02-01T10:47:46;2.50;;;1.50;;
25621;SDS011;13487;39.360;22.962;2023-02-01T10:53:01;0.37;;;0.37;;
25621;SDS011;13487;39.360;22.962;2023-02-01T10:55:35;0.30;;;0.30;;
25621;SDS011;13487;39.360;22.962;2023-02-01T10:58:03;0.20;;;0.20;;
25621;SDS011;13487;39.360;22.962;2023-02-01T11:00:34;0.20;;;0.20;;
25621;SDS011;13487;39.360;22.962;2023-02-01T11:03:18;0.30;;;0.30;;
25621;SDS011;13487;39.360;22.962;2023-02-01T11:05:45;0.13;;;0.13;;
25621;SDS011;13487;39.360;22.962;2023-02-01T11:08:14;0.30;;;0.30;;
25621;SDS011;13487;39.360;22.962;2023-02-01T11:10:42;0.60;;;0.60;;
25621;SDS011;13487;39.360;22.962;2023-02-01T11:13:15;0.20;;;0.20;;
25621;SDS011;13487;39.360;22.962;2023-02-01T11:15:44;0.20;;;0.20;;
25621;SDS011;13487;39.360;22.962;2023-02-01T11:18:18;0.20;;;0.20;;
25621;SDS011;13487;39.360;22.962;2023-02-01T11:20:45;0.40;;;0.40;;
25621;SDS011;13487;39.360;22.962;2023-02-01T11:23:21;0.20;;;0.20;;
25621;SDS011;13487;39.360;22.962;2023-02-01T11:25:49;0.30;;;0.30;;
25621;SDS011;13487;39.360;22.962;2023-02-01T11:28:15;0.30;;;0.30;;
25621;SDS011;13487;39.360;22.962;2023-02-01T11:30:43;0.77;;;0.77;;
25621;SDS011;13487;39.360;22.962;2023-02-01T11:33:16;0.33;;;0.33;;
25621;SDS011;13487;39.360;22.962;2023-02-01T11:35:43;0.60;;;0.60;;
25621;SDS011;13487;39.360;22.962;2023-02-01T11:38:25;0.20;;;0.20;;
25621;SDS011;13487;39.360;22.962;2023-02-01T11:40:52;0.40;;;0.40;;
25621;SDS011;13487;39.360;22.962;2023-02-01T11:43:28;0.27;;;0.27;;
25621;SDS011;13487;39.360;22.962;2023-02-01T11:45:55;0.50;;;0.50;;
25621;SDS011;13487;39.360;22.962;2023-02-01T11:48:22;1.10;;;0.80;;
25621;SDS011;13487;39.360;22.962;2023-02-01T11:51:35;0.20;;;0.20;;
25621;SDS011;13487;39.360;22.962;2023-02-01T11:53:46;0.27;;;0.27;;
25621;SDS011;13487;39.360;22.962;2023-02-01T12:03:57;1.50;;;1.03;;
25621;SDS011;13487;39.360;22.962;2023-02-01T12:09:28;0.37;;;0.37;;
25621;SDS011;13487;39.360;22.962;2023-02-01T12:25:24;0.20;;;0.20;;
25621;SDS011;13487;39.360;22.962;2023-02-01T12:30:32;0.20;;;0.20;;
25621;SDS011;13487;39.360;22.962;2023-02-01T12:38:31;0.20;;;0.20;;
25621;SDS011;13487;39.360;22.962;2023-02-01T12:43:44;0.20;;;0.20;;
25621;SDS011;13487;39.360;22.962;2023-02-01T12:46:31;0.37;;;0.37;;
25621;SDS011;13487;39.360;22.962;2023-02-01T12:49:03;0.47;;;0.47;;
25621;SDS011;13487;39.360;22.962;2023-02-01T12:51:35;0.20;;;0.20;;
25621;SDS011;13487;39.360;22.962;2023-02-01T12:54:13;0.30;;;0.30;;
25621;SDS011;13487;39.360;22.962;2023-02-01T12:56:43;0.20;;;0.20;;
25621;SDS011;13487;39.360;22.962;2023-02-01T12:59:22;0.30;;;0.30;;
25621;SDS011;13487;39.360;22.962;2023-02-01T13:01:58;0.37;;;0.37;;
25621;SDS011;13487;39.360;22.962;2023-02-01T13:04:27;0.83;;;0.83;;
25621;SDS011;13487;39.360;22.962;2023-02-01T13:06:57;0.33;;;0.33;;
25621;SDS011;13487;39.360;22.962;2023-02-01T13:09:31;0.70;;;0.70;;
25621;SDS011;13487;39.360;22.962;2023-02-01T13:11:59;0.20;;;0.20;;
25621;SDS011;13487;39.360;22.962;2023-02-01T13:17:06;2.93;;;1.33;;
25621;SDS011;13487;39.360;22.962;2023-02-01T13:22:06;0.77;;;0.77;;
25621;SDS011;13487;39.360;22.962;2023-02-01T13:24:39;0.30;;;0.30;;
25621;SDS011;13487;39.360;22.962;2023-02-01T13:27:10;0.10;;;0.10;;
25621;SDS011;13487;39.360;22.962;2023-02-01T13:29:37;0.40;;;0.40;;
25621;SDS011;13487;39.360;22.962;2023-02-01T13:39:59;0.20;;;0.20;;
25621;SDS011;13487;39.360;22.962;2023-02-01T13:42:42;0.30;;;0.30;;
25621;SDS011;13487;39.360;22.962;2023-02-01T13:45:19;0.33;;;0.30;;
25621;SDS011;13487;39.360;22.962;2023-02-01T13:47:48;0.77;;;0.77;;
25621;SDS011;13487;39.360;22.962;2023-02-01T13:52:58;0.30;;;0.30;;
25621;SDS011;13487;39.360;22.962;2023-02-01T13:55:27;0.20;;;0.20;;
25621;SDS011;13487;39.360;22.962;2023-02-01T14:00:33;0.20;;;0.20;;
25621;SDS011;13487;39.360;22.962;2023-02-01T14:26:23;2.23;;;1.33;;
25621;SDS011;13487;39.360;22.962;2023-02-01T14:34:38;0.40;;;0.40;;
25621;SDS011;13487;39.360;22.962;2023-02-01T14:37:11;0.37;;;0.37;;
25621;SDS011;13487;39.360;22.962;2023-02-01T14:42:55;0.40;;;0.40;;
25621;SDS011;13487;39.360;22.962;2023-02-01T14:47:53;0.57;;;0.57;;
25621;SDS011;13487;39.360;22.962;2023-02-01T14:58:32;0.60;;;0.60;;
25621;SDS011;13487;39.360;22.962;2023-02-01T15:01:02;15.67;;;0.77;;
25621;SDS011;13487;39.360;22.962;2023-02-01T15:06:04;1.57;;;0.67;;
25621;SDS011;13487;39.360;22.962;2023-02-01T15:08:39;1.37;;;1.27;;
25621;SDS011;13487;39.360;22.962;2023-02-01T15:11:07;1.20;;;0.70;;
25621;SDS011;13487;39.360;22.962;2023-02-01T15:13:36;0.57;;;0.57;;
25621;SDS011;13487;39.360;22.962;2023-02-01T15:16:10;0.30;;;0.30;;
25621;SDS011;13487;39.360;22.962;2023-02-01T15:18:36;0.37;;;0.37;;
25621;SDS011;13487;39.360;22.962;2023-02-01T15:21:03;0.40;;;0.40;;
25621;SDS011;13487;39.360;22.962;2023-02-01T15:23:30;0.30;;;0.30;;
25621;SDS011;13487;39.360;22.962;2023-02-01T15:25:57;0.30;;;0.30;;
25621;SDS011;13487;39.360;22.962;2023-02-01T15:28:24;0.53;;;0.53;;
25621;SDS011;13487;39.360;22.962;2023-02-01T15:30:55;0.40;;;0.40;;
25621;SDS011;13487;39.360;22.962;2023-02-01T15:33:22;0.67;;;0.67;;
25621;SDS011;13487;39.360;22.962;2023-02-01T15:35:50;0.30;;;0.30;;
25621;SDS011;13487;39.360;22.962;2023-02-01T15:38:20;0.50;;;0.50;;
25621;SDS011;13487;39.360;22.962;2023-02-01T15:46:15;2.60;;;1.40;;
25621;SDS011;13487;39.360;22.962;2023-02-01T15:48:43;2.33;;;1.90;;
25621;SDS011;13487;39.360;22.962;2023-02-01T15:51:20;0.60;;;0.60;;
25621;SDS011;13487;39.360;22.962;2023-02-01T15:53:48;0.60;;;0.60;;
25621;SDS011;13487;39.360;22.962;2023-02-01T15:56:15;0.87;;;0.87;;
25621;SDS011;13487;39.360;22.962;2023-02-01T15:58:42;3.00;;;1.00;;
25621;SDS011;13487;39.360;22.962;2023-02-01T16:01:10;3.30;;;2.53;;
25621;SDS011;13487;39.360;22.962;2023-02-01T16:03:40;12.50;;;1.33;;
25621;SDS011;13487;39.360;22.962;2023-02-01T16:06:26;3.93;;;3.57;;
25621;SDS011;13487;39.360;22.962;2023-02-01T16:11:26;6.43;;;4.03;;
25621;SDS011;13487;39.360;22.962;2023-02-01T16:23:05;3.80;;;3.50;;
25621;SDS011;13487;39.360;22.962;2023-02-01T16:25:32;1.53;;;1.43;;
25621;SDS011;13487;39.360;22.962;2023-02-01T16:27:58;1.77;;;1.67;;
25621;SDS011;13487;39.360;22.962;2023-02-01T16:30:24;4.47;;;4.03;;
25621;SDS011;13487;39.360;22.962;2023-02-01T16:32:54;1.83;;;1.73;;
25621;SDS011;13487;39.360;22.962;2023-02-01T16:35:26;4.43;;;2.50;;
25621;SDS011;13487;39.360;22.962;2023-02-01T16:37:53;14.83;;;2.87;;
25621;SDS011;13487;39.360;22.962;2023-02-01T16:40:20;2.10;;;1.73;;
25621;SDS011;13487;39.360;22.962;2023-02-01T16:42:47;1.80;;;1.43;;
25621;SDS011;13487;39.360;22.962;2023-02-01T16:45:15;2.33;;;2.13;;
25621;SDS011;13487;39.360;22.962;2023-02-01T16:47:48;2.17;;;2.00;;
25621;SDS011;13487;39.360;22.962;2023-02-01T16:50:17;0.83;;;0.83;;
25621;SDS011;13487;39.360;22.962;2023-02-01T16:52:44;5.77;;;3.03;;
25621;SDS011;13487;39.360;22.962;2023-02-01T16:55:14;4.10;;;2.83;;
25621;SDS011;13487;39.360;22.962;2023-02-01T16:57:41;7.30;;;4.63;;
25621;SDS011;13487;39.360;22.962;2023-02-01T17:00:07;28.93;;;5.87;;
25621;SDS011;13487;39.360;22.962;2023-02-01T17:02:34;15.20;;;4.33;;
25621;SDS011;13487;39.360;22.962;2023-02-01T17:05:00;3.90;;;3.50;;
25621;SDS011;13487;39.360;22.962;2023-02-01T17:07:26;4.23;;;3.93;;
25621;SDS011;13487;39.360;22.962;2023-02-01T17:09:52;5.77;;;5.17;;
25621;SDS011;13487;39.360;22.962;2023-02-01T17:12:26;4.73;;;3.60;;
25621;SDS011;13487;39.360;22.962;2023-02-01T17:14:53;5.70;;;4.87;;
25621;SDS011;13487;39.360;22.962;2023-02-01T17:17:20;8.00;;;5.80;;
25621;SDS011;13487;39.360;22.962;2023-02-01T17:19:48;8.50;;;3.67;;
25621;SDS011;13487;39.360;22.962;2023-02-01T17:22:17;4.63;;;4.03;;
25621;SDS011;13487;39.360;22.962;2023-02-01T17:24:47;20.97;;;5.27;;